ΕΜΥ, Εθνική Μετεωρολογική Υπηρεσία - Δελτία Καιρού, Προγνώσεις

ΑΕΡΟΝΑΥΤΙΛΙΑ

GREEK AIRPORTS CODES

LGST 191200Z AUTO 15021KT //// // ////// 26/06 Q1011 RE//=

EUROPEAN AIRPORTS CODES

LFPO 191200Z 35006KT 310V020 9999 FEW023 BKN053 17/13 Q1007TEMPO 2000 -TSRA BKN025CB=